createdAt,value
2022-11-29T00:01:41.537Z,0.39
2022-11-29T00:04:10.012Z,0.67
2022-11-29T00:06:38.456Z,0.63
2022-11-29T00:09:11.812Z,0.44
2022-11-29T00:12:00.613Z,0.53
2022-11-29T00:14:29.611Z,0.68
2022-11-29T00:17:02.652Z,0.45
2022-11-29T00:19:35.979Z,0.68
2022-11-29T00:22:04.871Z,0.70
2022-11-29T00:24:33.264Z,0.50
2022-11-29T00:27:01.953Z,0.54
2022-11-29T00:29:31.065Z,0.79
2022-11-29T00:31:59.688Z,0.72
2022-11-29T00:34:28.475Z,0.78
2022-11-29T00:36:57.085Z,0.54
2022-11-29T00:39:25.296Z,0.69
2022-11-29T00:41:53.493Z,0.44
2022-11-29T00:44:21.426Z,0.47
2022-11-29T00:46:50.093Z,0.62
2022-11-29T00:49:18.154Z,0.77
2022-11-29T00:51:47.106Z,0.75
2022-11-29T00:54:15.723Z,0.51
2022-11-29T00:56:43.957Z,0.72
2022-11-29T00:59:11.921Z,0.62
2022-11-29T01:01:40.042Z,0.43
2022-11-29T01:04:08.033Z,0.77
2022-11-29T01:06:36.053Z,0.39
2022-11-29T01:09:05.643Z,0.73
2022-11-29T01:11:34.198Z,0.68
2022-11-29T01:14:03.872Z,0.73
2022-11-29T01:16:32.980Z,0.46
2022-11-29T01:19:01.413Z,0.51
2022-11-29T01:21:29.921Z,0.75
2022-11-29T01:23:57.987Z,0.51
2022-11-29T01:26:30.433Z,0.70
2022-11-29T01:28:59.238Z,0.60
2022-11-29T01:31:32.656Z,0.68
2022-11-29T01:34:03.277Z,0.76
2022-11-29T01:36:31.751Z,0.75
2022-11-29T01:39:02.130Z,0.78
2022-11-29T01:41:33.360Z,0.84
2022-11-29T01:44:14.253Z,0.81
2022-11-29T01:46:46.132Z,0.57
2022-11-29T01:49:34.638Z,0.70
2022-11-29T01:52:11.397Z,0.71
2022-11-29T01:54:44.759Z,0.68
2022-11-29T01:57:14.566Z,0.72
2022-11-29T01:59:48.304Z,0.70
2022-11-29T02:02:33.968Z,0.67
2022-11-29T02:05:05.448Z,0.72
2022-11-29T02:07:33.722Z,0.41
2022-11-29T02:10:04.329Z,0.76
2022-11-29T02:13:25.059Z,0.66
2022-11-29T02:16:17.758Z,0.70
2022-11-29T02:19:19.214Z,0.75
2022-11-29T02:22:20.769Z,0.41
2022-11-29T02:25:18.150Z,0.65
2022-11-29T02:28:17.077Z,0.68
2022-11-29T02:31:22.402Z,0.72
2022-11-29T02:34:21.260Z,0.72
2022-11-29T02:37:16.968Z,0.66
2022-11-29T02:40:37.671Z,0.75
2022-11-29T02:43:14.652Z,0.69
2022-11-29T02:46:11.820Z,0.68
2022-11-29T02:49:12.490Z,0.73
2022-11-29T02:51:58.234Z,-0.20
2022-11-29T02:54:35.643Z,0.69
2022-11-29T02:57:49.910Z,0.66
2022-11-29T03:00:22.228Z,0.73
2022-11-29T03:03:10.311Z,0.70
2022-11-29T03:06:05.471Z,0.78
2022-11-29T03:09:00.818Z,0.51
2022-11-29T03:11:55.936Z,0.68
2022-11-29T03:14:39.712Z,0.68
2022-11-29T03:17:58.854Z,0.70
2022-11-29T03:21:07.060Z,0.66
2022-11-29T03:23:45.005Z,0.33
2022-11-29T03:26:46.390Z,0.63
2022-11-29T03:29:40.775Z,0.27
2022-11-29T03:32:57.119Z,0.51
2022-11-29T03:35:41.526Z,0.66
2022-11-29T03:38:37.980Z,0.69
2022-11-29T03:41:17.565Z,0.77
2022-11-29T03:44:10.280Z,0.78
2022-11-29T03:47:02.291Z,0.55
2022-11-29T03:49:44.287Z,0.58
2022-11-29T03:52:38.688Z,0.69
2022-11-29T03:55:29.225Z,0.63
2022-11-29T03:58:27.844Z,0.70
2022-11-29T04:01:20.762Z,0.74
2022-11-29T04:04:22.511Z,0.87
2022-11-29T04:07:34.949Z,0.77
2022-11-29T04:10:25.613Z,0.75
2022-11-29T04:13:19.525Z,0.78
2022-11-29T04:16:08.826Z,0.70
2022-11-29T04:18:53.526Z,0.52
2022-11-29T04:21:53.610Z,0.45
2022-11-29T04:24:54.770Z,0.43
2022-11-29T04:28:10.014Z,0.51
2022-11-29T04:31:21.671Z,0.50
2022-11-29T04:34:30.033Z,0.52
2022-11-29T04:37:37.689Z,0.50
2022-11-29T04:40:33.623Z,0.55
2022-11-29T04:43:39.598Z,0.58
2022-11-29T04:46:25.602Z,0.54
2022-11-29T04:49:07.664Z,0.45
2022-11-29T04:52:01.750Z,0.49
2022-11-29T04:54:51.976Z,0.02
2022-11-29T04:57:37.356Z,0.47
2022-11-29T05:00:12.890Z,0.51
2022-11-29T05:03:06.434Z,0.53
2022-11-29T05:05:45.777Z,0.52
2022-11-29T05:08:48.924Z,0.24
2022-11-29T05:11:43.217Z,0.48
2022-11-29T05:14:45.195Z,0.47
2022-11-29T05:17:31.913Z,0.46
2022-11-29T05:20:31.969Z,0.42
2022-11-29T05:23:54.153Z,0.45
2022-11-29T05:26:59.998Z,0.44
2022-11-29T05:30:00.714Z,0.46
2022-11-29T05:32:47.189Z,0.21
2022-11-29T05:35:36.919Z,0.45
2022-11-29T05:38:45.627Z,0.18
2022-11-29T05:41:31.923Z,0.56
2022-11-29T05:44:45.093Z,0.49
2022-11-29T05:47:26.877Z,0.55
2022-11-29T05:50:16.554Z,0.57
2022-11-29T05:53:35.960Z,0.52
2022-11-29T05:56:19.285Z,0.55
2022-11-29T05:58:53.989Z,0.50
2022-11-29T06:02:02.219Z,0.59
2022-11-29T06:04:59.155Z,0.56
2022-11-29T06:07:33.621Z,0.35
2022-11-29T06:10:40.625Z,0.52
2022-11-29T06:13:30.281Z,0.62
2022-11-29T06:16:48.063Z,0.65
2022-11-29T06:19:49.306Z,0.57
2022-11-29T06:22:35.363Z,0.57
2022-11-29T06:25:53.494Z,0.55
2022-11-29T06:28:30.587Z,0.63
2022-11-29T06:31:20.224Z,0.64
2022-11-29T06:34:05.899Z,0.56
2022-11-29T06:37:12.830Z,0.50
2022-11-29T06:39:41.175Z,0.36
2022-11-29T06:42:09.404Z,0.57
2022-11-29T06:44:37.668Z,0.30
2022-11-29T06:47:45.607Z,0.65
2022-11-29T06:50:34.558Z,0.67
2022-11-29T06:53:43.330Z,0.73
2022-11-29T06:56:29.994Z,0.78
2022-11-29T06:59:33.404Z,0.70
2022-11-29T07:02:11.163Z,0.42
2022-11-29T07:04:57.994Z,0.51
2022-11-29T07:07:26.344Z,0.70
2022-11-29T07:10:00.741Z,0.77
2022-11-29T07:12:29.169Z,0.74
2022-11-29T07:14:58.688Z,0.56
2022-11-29T07:17:43.030Z,0.57
2022-11-29T07:20:42.508Z,0.58
2022-11-29T07:23:33.497Z,0.87
2022-11-29T07:26:37.077Z,0.80
2022-11-29T07:29:45.690Z,0.81
2022-11-29T07:33:00.613Z,0.84
2022-11-29T07:35:47.673Z,0.80
2022-11-29T07:38:24.617Z,0.84
2022-11-29T07:41:21.398Z,0.80
2022-11-29T07:44:35.018Z,0.96
2022-11-29T07:47:03.490Z,0.98
2022-11-29T07:49:32.360Z,1.02
2022-11-29T07:52:01.448Z,0.98
2022-11-29T07:54:30.633Z,1.04
2022-11-29T07:56:58.899Z,0.81
2022-11-29T07:59:27.022Z,0.81
2022-11-29T08:01:56.618Z,0.42
2022-11-29T08:04:25.795Z,0.77
2022-11-29T08:06:53.915Z,1.06
2022-11-29T08:09:22.006Z,0.98
2022-11-29T08:11:50.216Z,0.86
2022-11-29T08:14:20.266Z,0.83
2022-11-29T08:16:48.503Z,0.97
2022-11-29T08:19:16.720Z,0.50
2022-11-29T08:21:47.077Z,0.93
2022-11-29T08:24:15.438Z,0.97
2022-11-29T08:26:43.781Z,1.07
2022-11-29T08:29:12.655Z,0.79
2022-11-29T08:31:41.063Z,1.03
2022-11-29T08:34:10.852Z,1.24
2022-11-29T08:36:39.131Z,1.11
2022-11-29T08:39:09.508Z,1.21
2022-11-29T08:41:37.872Z,1.28
2022-11-29T08:44:06.805Z,1.00
2022-11-29T08:46:53.837Z,1.26
2022-11-29T08:49:21.990Z,1.16
2022-11-29T08:51:53.454Z,0.97
2022-11-29T08:54:22.874Z,0.93
2022-11-29T08:57:37.864Z,1.06
2022-11-29T08:59:39.480Z,1.19
2022-11-29T09:02:07.657Z,1.38
2022-11-29T09:04:35.757Z,1.30
2022-11-29T09:07:04.720Z,1.03
2022-11-29T09:09:33.820Z,1.31
2022-11-29T09:12:01.893Z,1.30
2022-11-29T09:14:31.061Z,1.24
2022-11-29T09:16:59.852Z,1.22
2022-11-29T09:19:28.747Z,0.97
2022-11-29T09:21:57.513Z,1.28
2022-11-29T09:24:26.757Z,1.24
2022-11-29T09:26:55.495Z,1.38
2022-11-29T09:29:24.917Z,1.01
2022-11-29T09:31:53.116Z,1.44
2022-11-29T09:34:21.332Z,1.48
2022-11-29T09:36:49.361Z,1.48
2022-11-29T09:39:17.421Z,1.53
2022-11-29T09:42:10.324Z,1.36
2022-11-29T09:45:02.071Z,1.50
2022-11-29T09:47:39.329Z,1.53
2022-11-29T09:50:31.466Z,1.52
2022-11-29T09:53:21.377Z,1.63
2022-11-29T09:56:27.341Z,1.42
2022-11-29T09:59:10.085Z,1.49
2022-11-29T10:01:47.403Z,1.50
2022-11-29T10:04:21.718Z,1.25
2022-11-29T10:07:02.886Z,1.17
2022-11-29T10:09:48.148Z,1.55
2022-11-29T10:12:54.843Z,1.82
2022-11-29T10:15:31.787Z,1.79
2022-11-29T10:18:19.337Z,1.74
2022-11-29T10:20:52.969Z,1.83
2022-11-29T10:23:45.836Z,1.85
2022-11-29T10:26:14.479Z,1.88
2022-11-29T10:28:47.719Z,1.82
2022-11-29T10:31:25.439Z,1.68
2022-11-29T10:33:55.846Z,1.88
2022-11-29T10:36:49.333Z,1.65
2022-11-29T10:39:25.302Z,1.82
2022-11-29T10:42:01.153Z,1.90
2022-11-29T10:44:32.153Z,1.69
2022-11-29T10:47:10.406Z,1.58
2022-11-29T10:49:40.372Z,1.81
2022-11-29T10:52:23.184Z,1.64
2022-11-29T10:54:57.271Z,1.82
2022-11-29T10:57:25.817Z,1.61
2022-11-29T11:00:02.394Z,1.79
2022-11-29T11:02:33.203Z,1.98
2022-11-29T11:05:03.075Z,2.09
2022-11-29T11:07:36.627Z,1.75
2022-11-29T11:10:28.989Z,2.19
2022-11-29T11:13:24.342Z,2.15
2022-11-29T11:16:29.702Z,1.79
2022-11-29T11:19:34.276Z,1.81
2022-11-29T11:22:04.282Z,1.70
2022-11-29T11:24:40.242Z,1.97
2022-11-29T11:27:08.517Z,1.97
2022-11-29T11:29:44.964Z,1.79
2022-11-29T11:32:20.461Z,1.62
2022-11-29T11:35:01.880Z,1.79
2022-11-29T11:37:35.861Z,1.60
2022-11-29T11:40:30.206Z,1.11
2022-11-29T11:43:02.181Z,1.89
2022-11-29T11:45:36.933Z,1.95
2022-11-29T11:48:14.782Z,1.59
2022-11-29T11:50:53.285Z,2.07
2022-11-29T11:53:37.952Z,1.85
2022-11-29T11:56:13.572Z,1.70
2022-11-29T11:58:44.504Z,1.73
2022-11-29T12:01:12.714Z,1.75
2022-11-29T12:03:49.610Z,1.76
2022-11-29T12:06:28.986Z,1.87
2022-11-29T12:09:35.144Z,1.82
2022-11-29T12:12:21.534Z,1.67
2022-11-29T12:15:07.991Z,1.68
2022-11-29T12:17:59.200Z,1.72
2022-11-29T12:21:03.573Z,1.85
2022-11-29T12:23:40.926Z,1.74
2022-11-29T12:29:31.683Z,1.74
2022-11-29T12:32:14.518Z,1.46
2022-11-29T12:35:19.686Z,1.80
2022-11-29T12:38:26.270Z,1.66
2022-11-29T12:41:38.680Z,1.78
2022-11-29T12:44:25.198Z,1.73
2022-11-29T12:47:37.272Z,1.69
2022-11-29T12:50:40.685Z,1.93
2022-11-29T12:53:37.993Z,1.92
2022-11-29T12:56:28.323Z,1.89
2022-11-29T12:59:23.280Z,1.94
2022-11-29T13:02:46.003Z,2.08
2022-11-29T13:05:38.816Z,2.20
2022-11-29T13:08:19.175Z,2.00
2022-11-29T13:11:14.542Z,2.03
2022-11-29T13:13:48.765Z,1.91
2022-11-29T13:16:27.712Z,1.89
2022-11-29T13:18:58.645Z,1.84
2022-11-29T13:21:57.076Z,1.10
2022-11-29T13:24:42.907Z,1.18
2022-11-29T13:27:19.824Z,1.62
2022-11-29T13:29:48.734Z,1.88
2022-11-29T13:32:45.800Z,1.61
2022-11-29T13:35:58.299Z,1.83
2022-11-29T13:38:43.663Z,1.84
2022-11-29T13:41:52.984Z,1.78
2022-11-29T13:44:24.036Z,1.73
2022-11-29T13:47:21.271Z,1.77
2022-11-29T13:50:02.747Z,1.68
2022-11-29T13:52:43.746Z,1.76
2022-11-29T13:55:11.810Z,1.71
2022-11-29T13:58:18.063Z,1.70
2022-11-29T14:00:51.928Z,1.64
2022-11-29T14:03:28.801Z,1.41
2022-11-29T14:06:12.824Z,1.74
2022-11-29T14:09:17.737Z,1.71
2022-11-29T14:12:04.215Z,1.72
2022-11-29T14:14:54.643Z,1.43
2022-11-29T14:17:34.202Z,1.76
2022-11-29T14:20:23.579Z,1.66
2022-11-29T14:23:16.928Z,1.67
2022-11-29T14:25:57.421Z,1.76
2022-11-29T14:28:31.835Z,1.69
2022-11-29T14:31:05.567Z,1.77
2022-11-29T14:34:13.634Z,1.76
2022-11-29T14:36:54.987Z,1.17
2022-11-29T14:39:48.209Z,1.60
2022-11-29T14:42:22.534Z,1.45
2022-11-29T14:44:58.610Z,1.43
2022-11-29T14:47:47.386Z,1.65
2022-11-29T14:50:39.989Z,1.67
2022-11-29T14:53:30.671Z,1.42
2022-11-29T14:56:30.219Z,1.69
2022-11-29T14:59:36.139Z,1.62
2022-11-29T15:02:48.218Z,1.60
2022-11-29T15:05:54.268Z,1.58
2022-11-29T15:09:17.403Z,1.56
2022-11-29T15:12:04.302Z,1.51
2022-11-29T15:14:58.877Z,1.11
2022-11-29T15:17:43.608Z,1.53
2022-11-29T15:20:55.350Z,1.56
2022-11-29T15:23:24.300Z,1.24
2022-11-29T15:25:59.514Z,1.30
2022-11-29T15:28:33.453Z,0.99
2022-11-29T15:31:15.182Z,1.47
2022-11-29T15:33:46.279Z,1.49
2022-11-29T15:36:24.439Z,1.54
2022-11-29T15:38:57.506Z,1.48
2022-11-29T15:41:35.604Z,1.22
2022-11-29T15:44:19.756Z,0.62
2022-11-29T15:46:47.970Z,1.28
2022-11-29T15:49:25.780Z,1.47
2022-11-29T15:52:07.993Z,1.42
2022-11-29T15:54:46.235Z,0.97
2022-11-29T15:57:27.691Z,1.17
2022-11-29T16:00:01.497Z,1.14
2022-11-29T16:03:02.496Z,1.41
2022-11-29T16:05:37.570Z,1.44
2022-11-29T16:08:14.750Z,1.42
2022-11-29T16:10:51.870Z,1.43
2022-11-29T16:13:33.900Z,1.39
2022-11-29T16:16:15.918Z,1.04
2022-11-29T16:18:47.094Z,1.34
2022-11-29T16:21:29.309Z,1.26
2022-11-29T16:23:59.141Z,1.35
2022-11-29T16:26:34.095Z,1.32
2022-11-29T16:29:03.246Z,1.29
2022-11-29T16:31:37.909Z,1.32
2022-11-29T16:34:30.179Z,1.36
2022-11-29T16:37:07.897Z,1.32
2022-11-29T16:39:38.799Z,1.38
2022-11-29T16:42:26.359Z,1.18
2022-11-29T16:44:55.384Z,1.38
2022-11-29T16:47:28.354Z,1.32
2022-11-29T16:50:02.381Z,1.33
2022-11-29T16:52:33.821Z,1.27
2022-11-29T16:55:02.212Z,1.15
2022-11-29T16:57:31.395Z,1.29
2022-11-29T16:59:59.522Z,1.26
2022-11-29T17:02:30.249Z,1.22
2022-11-29T17:04:58.716Z,0.89
2022-11-29T17:07:35.534Z,0.88
2022-11-29T17:10:08.541Z,1.21
2022-11-29T17:12:47.775Z,1.06
2022-11-29T17:15:17.497Z,1.18
2022-11-29T17:17:46.141Z,1.21
2022-11-29T17:20:14.360Z,1.23
2022-11-29T17:22:42.408Z,1.12
2022-11-29T17:25:11.361Z,0.91
2022-11-29T17:27:39.580Z,0.97
2022-11-29T17:30:08.671Z,1.15
2022-11-29T17:32:37.418Z,1.09
2022-11-29T17:35:08.868Z,0.87
2022-11-29T17:37:37.054Z,0.91
2022-11-29T17:40:06.506Z,1.14
2022-11-29T17:42:34.617Z,0.73
2022-11-29T17:45:02.798Z,1.07
2022-11-29T17:47:32.333Z,1.07
2022-11-29T17:50:00.271Z,1.03
2022-11-29T17:52:28.265Z,1.02
2022-11-29T17:54:56.823Z,1.00
2022-11-29T17:57:25.043Z,1.06
2022-11-29T17:59:53.120Z,0.90
2022-11-29T18:02:21.375Z,0.78
2022-11-29T18:04:49.464Z,1.02
2022-11-29T18:07:18.445Z,0.81
2022-11-29T18:09:48.567Z,1.04
2022-11-29T18:12:17.110Z,0.86
2022-11-29T18:14:45.121Z,0.94
2022-11-29T18:17:13.428Z,0.88
2022-11-29T18:19:42.676Z,0.47
2022-11-29T18:22:10.647Z,0.77
2022-11-29T18:24:41.724Z,0.83
2022-11-29T18:27:15.494Z,0.75
2022-11-29T18:29:46.225Z,0.78
2022-11-29T18:32:17.718Z,0.37
2022-11-29T18:34:47.126Z,0.66
2022-11-29T18:37:28.278Z,0.78
2022-11-29T18:40:04.081Z,0.51
2022-11-29T18:42:32.116Z,0.72
2022-11-29T18:45:00.318Z,0.79
2022-11-29T18:47:30.869Z,0.88
2022-11-29T18:49:58.967Z,0.87
2022-11-29T18:52:26.907Z,0.88
2022-11-29T18:54:55.763Z,0.85
2022-11-29T18:57:23.982Z,0.90
2022-11-29T18:59:52.138Z,0.88
2022-11-29T19:02:20.893Z,0.85
2022-11-29T19:04:50.375Z,0.90
2022-11-29T19:07:18.462Z,0.61
2022-11-29T19:09:46.796Z,0.94
2022-11-29T19:12:14.889Z,0.94
2022-11-29T19:14:49.505Z,0.65
2022-11-29T19:17:18.949Z,0.91
2022-11-29T19:19:47.373Z,0.43
2022-11-29T19:22:15.932Z,0.79
2022-11-29T19:24:44.315Z,0.99
2022-11-29T19:27:13.133Z,0.97
2022-11-29T19:29:41.256Z,0.48
2022-11-29T19:32:10.002Z,0.70
2022-11-29T19:34:38.210Z,0.92
2022-11-29T19:37:06.640Z,1.05
2022-11-29T19:39:35.022Z,0.93
2022-11-29T19:42:03.425Z,0.86
2022-11-29T19:44:35.894Z,0.62
2022-11-29T19:47:17.329Z,0.96
2022-11-29T19:49:46.875Z,1.00
2022-11-29T19:52:15.097Z,1.04
2022-11-29T19:54:43.276Z,0.12
2022-11-29T19:57:13.051Z,0.99
2022-11-29T19:59:41.703Z,0.93
2022-11-29T20:02:12.148Z,0.69
2022-11-29T20:04:40.293Z,0.98
2022-11-29T20:07:08.524Z,0.97
2022-11-29T20:09:36.966Z,0.71
2022-11-29T20:12:05.110Z,1.06
2022-11-29T20:14:33.295Z,0.96
2022-11-29T20:17:01.618Z,1.03
2022-11-29T20:19:29.628Z,1.08
2022-11-29T20:21:57.805Z,1.07
2022-11-29T20:24:26.003Z,1.08
2022-11-29T20:26:54.035Z,0.61
2022-11-29T20:29:27.146Z,1.13
2022-11-29T20:31:55.953Z,1.09
2022-11-29T20:34:24.065Z,1.09
2022-11-29T20:37:28.519Z,0.90
2022-11-29T20:40:19.265Z,1.19
2022-11-29T20:43:47.128Z,1.19
2022-11-29T20:46:15.388Z,1.17
2022-11-29T20:48:43.904Z,1.03
2022-11-29T20:51:30.232Z,0.94
2022-11-29T20:54:02.632Z,1.23
2022-11-29T20:56:39.641Z,0.72
2022-11-29T20:59:07.862Z,1.17
2022-11-29T21:01:36.292Z,1.13
2022-11-29T21:04:04.696Z,1.19
2022-11-29T21:06:36.417Z,1.17
2022-11-29T21:09:04.827Z,1.18
2022-11-29T21:11:33.659Z,1.18
2022-11-29T21:14:05.055Z,1.19
2022-11-29T21:16:33.882Z,0.89
2022-11-29T21:19:04.218Z,1.17
2022-11-29T21:21:51.712Z,1.24
2022-11-29T21:24:29.567Z,1.20
2022-11-29T21:26:58.447Z,0.91
2022-11-29T21:29:28.003Z,1.25
2022-11-29T21:31:57.038Z,1.16
2022-11-29T21:34:25.069Z,1.13
2022-11-29T21:37:19.198Z,1.25
2022-11-29T21:39:49.573Z,1.08
2022-11-29T21:42:17.920Z,1.16
2022-11-29T21:44:46.688Z,0.68
2022-11-29T21:47:15.995Z,0.99
2022-11-29T21:49:44.281Z,1.13
2022-11-29T21:52:15.347Z,1.16
2022-11-29T21:54:46.941Z,1.18
2022-11-29T21:57:15.095Z,1.17
2022-11-29T21:59:48.271Z,1.14
2022-11-29T22:02:18.512Z,1.16
2022-11-29T22:04:48.954Z,1.10
2022-11-29T22:07:17.110Z,1.16
2022-11-29T22:09:47.211Z,1.10
2022-11-29T22:12:52.798Z,1.04
2022-11-29T22:18:02.048Z,0.91
2022-11-29T22:20:30.633Z,1.13
2022-11-29T22:23:14.241Z,0.91
2022-11-29T22:25:42.577Z,0.92
2022-11-29T22:28:10.538Z,1.06
2022-11-29T22:30:38.551Z,1.04
2022-11-29T22:33:11.824Z,0.87
2022-11-29T22:35:44.815Z,0.80
2022-11-29T22:38:12.988Z,1.00
2022-11-29T22:40:41.105Z,1.05
2022-11-29T22:43:09.041Z,1.02
2022-11-29T22:45:37.128Z,0.54
2022-11-29T22:48:05.279Z,0.82
2022-11-29T22:50:34.071Z,0.82
2022-11-29T22:53:02.134Z,0.77
2022-11-29T22:55:30.026Z,0.96
2022-11-29T22:57:58.157Z,0.99
2022-11-29T23:00:26.487Z,1.03
2022-11-29T23:02:57.871Z,0.99
2022-11-29T23:05:31.965Z,0.72
2022-11-29T23:08:00.539Z,1.07
2022-11-29T23:10:28.813Z,1.02
2022-11-29T23:12:59.646Z,1.11
2022-11-29T23:15:27.574Z,1.09
2022-11-29T23:17:57.805Z,0.84
2022-11-29T23:20:26.902Z,0.66
2022-11-29T23:22:54.745Z,1.18
2022-11-29T23:25:22.805Z,0.95
2022-11-29T23:27:50.881Z,1.20
2022-11-29T23:30:18.824Z,1.18
2022-11-29T23:32:47.040Z,0.94
2022-11-29T23:35:15.015Z,1.14
2022-11-29T23:37:42.861Z,1.17
2022-11-29T23:40:11.454Z,1.16
2022-11-29T23:42:42.419Z,1.15
2022-11-29T23:45:13.407Z,1.13
2022-11-29T23:47:41.300Z,1.18
2022-11-29T23:50:10.806Z,1.14
2022-11-29T23:52:39.238Z,0.85
2022-11-29T23:55:07.644Z,1.06
2022-11-29T23:57:35.526Z,1.00
